createdAt,value
2023-04-29T00:03:12.837Z,12.56
2023-04-29T00:08:14.624Z,12.59
2023-04-29T00:13:17.812Z,12.64
2023-04-29T00:18:19.478Z,12.67
2023-04-29T00:23:21.131Z,12.69
2023-04-29T00:28:24.230Z,12.61
2023-04-29T00:33:25.993Z,12.45
2023-04-29T00:38:27.722Z,12.52
2023-04-29T00:43:30.840Z,12.57
2023-04-29T00:48:32.518Z,12.59
2023-04-29T00:53:34.419Z,12.62
2023-04-29T00:58:37.770Z,12.61
2023-04-29T01:03:39.770Z,12.64
2023-04-29T01:08:52.396Z,12.65
2023-04-29T01:13:59.635Z,12.68
2023-04-29T01:19:06.706Z,12.69
2023-04-29T01:24:09.792Z,12.64
2023-04-29T01:29:24.593Z,12.64
2023-04-29T01:34:34.198Z,12.66
2023-04-29T01:39:45.395Z,12.65
2023-04-29T01:44:51.077Z,12.56
2023-04-29T01:49:52.769Z,12.48
2023-04-29T01:54:56.091Z,12.61
2023-04-29T01:59:57.703Z,12.57
2023-04-29T02:04:59.657Z,12.61
2023-04-29T02:10:02.915Z,12.65
2023-04-29T02:15:05.376Z,12.67
2023-04-29T02:20:08.482Z,12.66
2023-04-29T02:25:12.016Z,12.65
2023-04-29T02:30:13.639Z,12.62
2023-04-29T02:35:15.557Z,12.64
2023-04-29T02:40:18.565Z,12.68
2023-04-29T02:45:20.279Z,12.67
2023-04-29T02:50:21.945Z,12.69
2023-04-29T02:55:25.225Z,12.70
2023-04-29T03:00:26.883Z,12.69
2023-04-29T03:05:28.579Z,12.70
2023-04-29T03:10:31.590Z,12.68
2023-04-29T03:15:33.405Z,12.71
2023-04-29T03:20:35.111Z,12.67
2023-04-29T03:25:38.191Z,12.69
2023-04-29T03:30:39.888Z,12.65
2023-04-29T03:35:41.585Z,12.64
2023-04-29T03:40:44.769Z,12.63
2023-04-29T03:45:46.571Z,12.57
2023-04-29T03:50:48.358Z,12.60
2023-04-29T03:55:51.600Z,12.56
2023-04-29T04:00:53.298Z,12.53
2023-04-29T04:05:55.016Z,12.55
2023-04-29T04:10:58.044Z,12.49
2023-04-29T04:15:59.754Z,12.48
2023-04-29T04:21:05.891Z,12.44
2023-04-29T04:26:09.015Z,12.47
2023-04-29T04:31:10.744Z,12.39
2023-04-29T04:36:12.496Z,12.41
2023-04-29T04:41:15.562Z,12.41
2023-04-29T04:46:17.342Z,12.43
2023-04-29T04:51:21.055Z,12.43
2023-04-29T04:56:24.611Z,12.46
2023-04-29T05:01:26.214Z,12.32
2023-04-29T05:06:27.941Z,12.33
2023-04-29T05:11:33.208Z,12.36
2023-04-29T05:16:34.947Z,12.42
2023-04-29T05:21:36.606Z,12.41
2023-04-29T05:26:39.622Z,12.48
2023-04-29T05:31:41.315Z,12.45
2023-04-29T05:36:42.977Z,12.43
2023-04-29T05:41:46.026Z,12.41
2023-04-29T05:46:47.680Z,12.43
2023-04-29T05:51:49.327Z,12.49
2023-04-29T05:56:52.355Z,12.47
2023-04-29T06:01:54.015Z,12.44
2023-04-29T06:06:56.893Z,12.43
2023-04-29T06:11:59.922Z,12.37
2023-04-29T06:17:01.644Z,12.33
2023-04-29T06:22:03.239Z,12.31
2023-04-29T06:27:06.309Z,12.33
2023-04-29T06:32:08.224Z,12.33
2023-04-29T06:37:09.864Z,12.39
2023-04-29T06:42:12.870Z,12.41
2023-04-29T06:47:14.669Z,12.47
2023-04-29T06:52:16.327Z,12.47
2023-04-29T06:57:19.317Z,12.53
2023-04-29T07:02:21.029Z,12.55
2023-04-29T07:07:22.684Z,12.61
2023-04-29T07:12:26.650Z,12.59
2023-04-29T07:17:29.767Z,12.63
2023-04-29T07:22:31.424Z,12.54
2023-04-29T07:27:34.879Z,12.49
2023-04-29T07:32:36.745Z,12.46
2023-04-29T07:37:38.375Z,12.52
2023-04-29T07:42:41.395Z,12.53
2023-04-29T07:47:43.053Z,12.46
2023-04-29T07:52:44.779Z,12.46
2023-04-29T07:57:47.808Z,12.45
2023-04-29T08:02:51.162Z,12.47
2023-04-29T08:07:52.890Z,12.32
2023-04-29T08:12:55.897Z,12.34
2023-04-29T08:17:57.618Z,12.35
2023-04-29T08:22:59.371Z,12.27
2023-04-29T08:28:02.468Z,12.35
2023-04-29T08:33:04.152Z,12.20
2023-04-29T08:38:06.326Z,12.35
2023-04-29T08:43:10.403Z,12.42
2023-04-29T08:48:13.191Z,12.32
2023-04-29T08:53:14.996Z,12.36
2023-04-29T08:58:18.182Z,12.49
2023-04-29T09:03:25.371Z,12.52
2023-04-29T09:08:27.896Z,12.45
2023-04-29T09:13:31.677Z,12.52
2023-04-29T09:18:44.603Z,12.56
2023-04-29T09:23:47.074Z,12.50
2023-04-29T09:29:06.889Z,12.55
2023-04-29T09:34:08.809Z,12.70
2023-04-29T09:39:11.487Z,12.73
2023-04-29T09:44:14.557Z,12.57
2023-04-29T09:49:23.313Z,12.63
2023-04-29T09:54:27.138Z,12.72
2023-04-29T09:59:30.227Z,12.70
2023-04-29T10:04:34.859Z,12.70
2023-04-29T10:09:39.806Z,12.69
2023-04-29T10:14:47.836Z,12.70
2023-04-29T10:19:57.769Z,12.59
2023-04-29T10:25:01.546Z,12.62
2023-04-29T10:30:08.974Z,12.73
2023-04-29T10:35:12.121Z,12.71
2023-04-29T10:40:17.217Z,12.69
2023-04-29T10:45:25.374Z,12.72
2023-04-29T10:50:28.291Z,12.61
2023-04-29T10:55:30.399Z,12.74
2023-04-29T11:00:34.767Z,12.67
2023-04-29T11:05:37.231Z,12.78
2023-04-29T11:10:41.682Z,12.81
2023-04-29T11:15:44.733Z,12.63
2023-04-29T11:21:14.629Z,12.78
2023-04-29T11:26:19.658Z,12.83
2023-04-29T11:31:28.799Z,12.75
2023-04-29T11:36:31.973Z,12.91
2023-04-29T11:41:33.605Z,12.99
2023-04-29T11:46:36.703Z,13.01
2023-04-29T11:51:38.526Z,13.04
2023-04-29T11:56:40.190Z,13.01
2023-04-29T12:01:43.408Z,13.07
2023-04-29T12:06:45.070Z,13.34
2023-04-29T12:11:47.080Z,13.31
2023-04-29T12:16:50.186Z,13.17
2023-04-29T12:21:51.873Z,13.38
2023-04-29T12:26:55.203Z,13.22
2023-04-29T12:31:58.338Z,13.33
2023-04-29T12:37:00.510Z,13.39
2023-04-29T12:42:02.127Z,13.45
2023-04-29T12:47:09.983Z,13.42
2023-04-29T12:52:12.340Z,13.33
2023-04-29T12:57:14.380Z,13.41
2023-04-29T13:02:17.567Z,13.47
2023-04-29T13:07:19.275Z,13.37
2023-04-29T13:12:20.918Z,13.39
2023-04-29T13:17:24.036Z,13.35
2023-04-29T13:22:25.694Z,13.48
2023-04-29T13:27:27.438Z,13.47
2023-04-29T13:32:43.298Z,13.50
2023-04-29T13:37:47.906Z,13.47
2023-04-29T13:42:50.810Z,13.38
2023-04-29T13:48:09.600Z,13.31
2023-04-29T14:03:28.944Z,13.23
2023-04-29T14:08:32.141Z,13.35
2023-04-29T14:13:33.808Z,13.35
2023-04-29T14:18:36.861Z,13.15
2023-04-29T14:23:38.590Z,13.21
2023-04-29T14:28:40.226Z,13.24
2023-04-29T14:33:43.229Z,13.24
2023-04-29T14:38:44.882Z,13.20
2023-04-29T14:43:46.567Z,13.17
2023-04-29T14:48:49.631Z,13.21
2023-04-29T14:53:51.317Z,13.20
2023-04-29T14:58:53.055Z,13.24
2023-04-29T15:03:56.243Z,13.18
2023-04-29T15:08:57.938Z,13.26
2023-04-29T15:13:59.603Z,13.29
2023-04-29T15:19:20.913Z,13.26
2023-04-29T15:24:29.118Z,13.18
2023-04-29T15:29:33.272Z,13.25
2023-04-29T15:34:36.332Z,13.28
2023-04-29T15:39:37.961Z,13.18
2023-04-29T15:44:39.707Z,13.16
2023-04-29T15:49:43.354Z,13.09
2023-04-29T15:54:44.996Z,13.08
2023-04-29T15:59:46.623Z,13.01
2023-04-29T16:04:49.653Z,12.99
2023-04-29T16:09:51.807Z,12.99
2023-04-29T16:14:53.516Z,13.05
2023-04-29T16:19:56.521Z,13.01
2023-04-29T16:24:58.287Z,12.94
2023-04-29T16:30:00.266Z,13.06
2023-04-29T16:35:06.803Z,12.98
2023-04-29T16:45:39.187Z,12.98
2023-04-29T16:50:42.295Z,13.05
2023-04-29T16:55:44.189Z,13.01
2023-04-29T17:00:46.284Z,13.04
2023-04-29T17:05:49.378Z,13.01
2023-04-29T17:10:51.010Z,13.02
2023-04-29T17:15:52.797Z,13.02
2023-04-29T17:20:55.803Z,12.98
2023-04-29T17:25:57.522Z,12.98
2023-04-29T17:30:59.115Z,12.94
2023-04-29T17:36:03.038Z,12.91
2023-04-29T17:41:04.792Z,12.91
2023-04-29T17:46:06.470Z,12.92
2023-04-29T17:51:09.515Z,12.96
2023-04-29T17:56:11.202Z,12.88
2023-04-29T18:01:33.981Z,12.88
2023-04-29T18:07:44.479Z,12.91
2023-04-29T18:18:41.309Z,12.88
2023-04-29T18:29:44.691Z,12.86
2023-04-29T19:21:26.883Z,12.67
2023-04-29T19:26:19.810Z,12.58
2023-04-29T19:31:22.995Z,12.60
2023-04-29T19:36:24.741Z,12.62
2023-04-29T19:41:26.563Z,12.61
2023-04-29T19:46:29.745Z,12.61
2023-04-29T19:51:31.572Z,12.59
2023-04-29T19:56:33.229Z,12.57
2023-04-29T20:01:36.312Z,12.54
2023-04-29T20:06:38.122Z,12.52
2023-04-29T20:11:39.836Z,12.51
2023-04-29T20:16:42.905Z,12.51
2023-04-29T20:21:44.641Z,12.43
2023-04-29T20:26:46.283Z,12.46
2023-04-29T20:31:49.390Z,12.40
2023-04-29T20:36:51.063Z,12.39
2023-04-29T20:41:52.768Z,12.39
2023-04-29T20:46:55.847Z,12.37
2023-04-29T20:51:58.395Z,12.34
2023-04-29T20:57:00.467Z,12.35
2023-04-29T21:02:03.554Z,12.33
2023-04-29T21:07:05.446Z,12.27
2023-04-29T21:12:07.365Z,12.28
2023-04-29T21:17:10.414Z,12.25
2023-04-29T21:22:12.145Z,12.25
2023-04-29T21:27:14.051Z,12.25
2023-04-29T21:32:17.298Z,12.27
2023-04-29T21:37:19.089Z,12.25
2023-04-29T21:42:22.354Z,12.26
2023-04-29T21:47:26.812Z,12.23
2023-04-29T21:52:29.650Z,12.27
2023-04-29T21:57:42.639Z,12.18
2023-04-29T22:02:46.353Z,12.20
2023-04-29T22:07:48.094Z,12.19
2023-04-29T22:12:49.963Z,12.17
2023-04-29T22:17:53.045Z,12.14
2023-04-29T22:22:54.939Z,12.15
2023-04-29T22:27:56.697Z,12.16
2023-04-29T22:32:59.763Z,12.09
2023-04-29T22:38:01.482Z,12.06
2023-04-29T22:43:03.165Z,12.06
2023-04-29T22:48:06.693Z,12.00
2023-04-29T22:53:08.426Z,11.98
2023-04-29T22:58:10.076Z,12.00
2023-04-29T23:03:13.104Z,11.94
2023-04-29T23:08:15.323Z,11.93
2023-04-29T23:13:17.354Z,11.90
2023-04-29T23:18:21.673Z,11.95
2023-04-29T23:23:23.450Z,11.90
2023-04-29T23:28:25.262Z,11.98
2023-04-29T23:33:28.333Z,11.95
2023-04-29T23:38:29.985Z,11.89
2023-04-29T23:43:31.666Z,11.93
2023-04-29T23:48:34.723Z,11.86
2023-04-29T23:53:36.393Z,11.88
2023-04-29T23:58:38.017Z,11.98
